CST,Max TemperatureF,Mean TemperatureF,Min TemperatureF,Max Dew PointF,MeanDew PointF,Min DewpointF,Max Humidity, Mean Humidity, Min Humidity, Max Sea Level PressureIn, Mean Sea Level PressureIn, Min Sea Level PressureIn, Max VisibilityMiles, Mean VisibilityMiles, Min VisibilityMiles, Max Wind SpeedMPH, Mean Wind SpeedMPH, Max Gust SpeedMPH,PrecipitationIn, CloudCover, Events, WindDirDegrees
2012-11-1,35,30,26,34,24,19,100,81,69,30.12,30.09,30.02,10,10,3,21,13,26,0.00,8,Snow,349
2012-11-2,37,32,26,34,26,23,93,87,70,30.18,30.14,30.10,10,9,1,8,3,,0.12,6,Snow,73
2012-11-3,37,32,26,36,29,25,100,93,86,30.23,30.19,30.16,10,10,10,0,0,,0.00,8,,-1
2012-11-4,35,29,23,30,27,21,100,89,81,30.22,30.20,30.17,10,10,10,6,0,,0.00,6,,114
2012-11-5,42,36,30,32,29,27,100,83,61,30.22,30.06,29.72,10,9,2,18,4,24,0.12,8,Rain-Snow,179
2012-11-6,35,34,33,36,33,30,100,92,87,30.00,29.82,29.67,10,9,2,21,15,28,0.01,8,Rain-Snow,297
2012-11-7,42,36,30,39,35,30,100,91,76,30.07,29.98,29.83,10,9,1,18,3,26,0.00,6,,161
2012-11-8,39,34,30,36,32,27,93,86,75,30.15,29.95,29.79,10,9,3,21,14,24,0.00,6,Snow,320
2012-11-9,33,30,28,28,26,25,93,86,75,30.16,30.10,29.94,10,10,7,17,12,24,0.00,8,,55
2012-11-10,35,34,32,34,32,27,100,94,80,29.95,29.66,29.44,10,4,1,16,10,23,0.05,8,,67
2012-11-11,32,24,15,30,19,12,100,92,86,29.77,29.68,29.46,10,5,1,18,13,23,0.00,8,Snow,250
2012-11-12,17,14,10,16,13,7,100,89,85,30.17,29.98,29.77,10,6,2,21,13,26,0.00,7,Snow,258
2012-11-13,28,18,8,25,18,7,100,88,74,30.21,30.19,30.16,10,10,7,14,7,,0.00,3,,190
2012-11-14,42,30,19,36,26,18,100,87,75,30.20,30.11,30.01,10,9,7,14,4,21,0.00,2,,185
2012-11-15,35,24,14,30,18,10,100,77,47,30.45,30.30,30.02,10,10,10,16,8,20,0.00,1,,299
2012-11-16,41,28,14,25,14,9,93,59,31,30.46,30.28,30.09,10,10,7,21,8,25,0.00,0,,156
2012-11-17,44,38,33,37,32,25,87,76,65,30.10,30.07,30.03,10,10,10,15,10,21,0.00,1,,159
2012-11-18,53,42,30,39,34,27,93,74,51,30.03,29.97,29.91,10,10,10,15,6,22,0.00,1,,147
2012-11-19,48,34,19,37,31,18,100,81,62,30.15,30.02,29.91,10,8,0,13,6,17,0.00,1,Fog-Thunderstorm,210
2012-11-20,50,32,15,34,22,12,100,72,32,30.15,30.03,29.89,10,7,0,14,3,17,0.00,1,Fog,169
2012-11-21,60,45,30,45,32,27,93,70,45,29.88,29.76,29.53,10,10,10,15,8,20,0.00,0,,160
2012-11-22,37,24,10,34,22,9,100,91,81,30.13,29.79,29.51,10,5,0,26,11,34,0.00,6,Fog-Snow,298
2012-11-23,15,10,5,10,8,1,92,85,73,30.41,30.35,30.15,10,5,2,24,15,37,0.00,8,Snow,315
2012-11-24,23,9,-5,21,8,-9,93,85,68,30.33,29.98,29.77,10,9,1,16,5,25,0.00,6,Snow,180
2012-11-25,24,11,-2,19,10,-6,93,82,68,30.24,29.99,29.84,10,8,1,20,12,28,0.00,5,Snow,295
2012-11-26,21,5,-11,16,0,-17,92,80,67,30.38,30.28,30.14,10,10,4,17,7,20,0.00,3,Snow,211
2012-11-27,26,18,10,18,14,7,93,83,69,30.24,30.12,30.06,10,9,2,15,8,,0.00,8,Snow,259
2012-11-28,30,21,12,25,16,9,100,87,75,30.26,30.14,30.02,10,9,5,20,6,26,0.00,5,Snow,221
2012-11-29,19,14,10,18,10,7,93,81,63,30.20,30.15,30.11,10,10,7,15,10,18,0.00,5,,58
2012-11-30,30,24,19,27,22,16,93,91,80,30.17,30.06,29.86,10,6,3,14,6,20,0.00,8,,140